createdAt,value
2022-08-17T00:02:28.483Z,0.00
2022-08-17T00:07:28.413Z,0.00
2022-08-17T00:12:42.846Z,0.00
2022-08-17T00:17:29.229Z,0.00
2022-08-17T00:22:34.345Z,0.00
2022-08-17T00:27:30.178Z,0.00
2022-08-17T00:33:13.920Z,0.00
2022-08-17T00:37:29.130Z,0.00
2022-08-17T00:42:31.374Z,0.00
2022-08-17T00:47:27.800Z,0.00
2022-08-17T00:52:27.816Z,0.00
2022-08-17T00:57:27.803Z,0.00
2022-08-17T01:02:27.659Z,0.00
2022-08-17T01:07:27.600Z,0.00
2022-08-17T01:12:27.519Z,0.00
2022-08-17T01:17:27.410Z,0.00
2022-08-17T01:22:27.418Z,0.00
2022-08-17T01:27:27.293Z,0.00
2022-08-17T01:32:28.266Z,0.00
2022-08-17T01:37:27.168Z,0.00
2022-08-17T01:42:30.205Z,0.00
2022-08-17T01:47:27.123Z,0.00
2022-08-17T01:52:26.981Z,0.00
2022-08-17T01:57:27.080Z,0.00
2022-08-17T02:02:31.059Z,0.00
2022-08-17T02:07:27.146Z,0.00
2022-08-17T02:12:37.912Z,0.00
2022-08-17T02:17:27.744Z,0.00
2022-08-17T02:22:26.819Z,0.00
2022-08-17T02:27:26.663Z,0.00
2022-08-17T02:32:28.470Z,0.00
2022-08-17T02:37:27.370Z,0.00
2022-08-17T02:42:29.390Z,0.00
2022-08-17T02:47:26.272Z,0.00
2022-08-17T02:52:43.508Z,0.00
2022-08-17T02:57:27.169Z,0.00
2022-08-17T03:02:26.107Z,0.00
2022-08-17T03:07:26.004Z,0.00
2022-08-17T03:12:25.973Z,0.00
2022-08-17T03:17:25.875Z,0.00
2022-08-17T03:22:36.828Z,0.00
2022-08-17T03:27:26.930Z,4.00
2022-08-17T03:32:25.650Z,8.00
2022-08-17T03:37:25.678Z,12.00
2022-08-17T03:42:32.003Z,28.00
2022-08-17T03:47:25.500Z,56.00
2022-08-17T03:52:25.430Z,108.00
2022-08-17T03:57:25.339Z,196.00
2022-08-17T04:02:25.412Z,312.00
2022-08-17T04:07:25.265Z,436.00
2022-08-17T04:12:25.287Z,616.00
2022-08-17T04:17:25.145Z,868.00
2022-08-17T04:22:33.039Z,1160.00
2022-08-17T04:27:26.164Z,1636.00
2022-08-17T04:33:03.551Z,2260.00
2022-08-17T04:37:25.874Z,3168.00
2022-08-17T04:42:27.773Z,4252.00
2022-08-17T04:47:24.726Z,4720.00
2022-08-17T04:52:29.756Z,4824.00
2022-08-17T04:57:25.593Z,3776.00
2022-08-17T05:02:24.659Z,5796.00
2022-08-17T05:07:27.250Z,7584.00
2022-08-17T05:12:25.394Z,7288.00
2022-08-17T05:17:24.591Z,8904.00
2022-08-17T05:22:24.337Z,8436.00
2022-08-17T05:27:24.461Z,8912.00
2022-08-17T05:32:38.804Z,10204.00
2022-08-17T05:37:25.037Z,11196.00
2022-08-17T05:42:27.024Z,10324.00
2022-08-17T05:47:23.941Z,12564.00
2022-08-17T05:52:23.870Z,15360.00
2022-08-17T05:57:23.849Z,21856.00
2022-08-17T06:02:23.900Z,16544.00
2022-08-17T06:07:23.692Z,17088.00
2022-08-17T06:12:23.707Z,17408.00
2022-08-17T06:17:23.552Z,18400.00
2022-08-17T06:22:23.649Z,21792.00
2022-08-17T06:27:23.535Z,22880.00
2022-08-17T06:32:23.416Z,24800.00
2022-08-17T06:37:23.334Z,28384.00
2022-08-17T06:43:02.055Z,29024.00
2022-08-17T06:47:27.988Z,28832.00
2022-08-17T06:52:45.932Z,32544.00
2022-08-17T06:57:24.450Z,35744.00
2022-08-17T07:02:29.372Z,34304.00
2022-08-17T07:07:24.132Z,38368.00
2022-08-17T07:12:22.900Z,30080.00
2022-08-17T07:17:22.859Z,35168.00
2022-08-17T07:22:23.842Z,31776.00
2022-08-17T07:27:22.766Z,43392.00
2022-08-17T07:32:22.619Z,17600.00
2022-08-17T07:37:22.628Z,47072.00
2022-08-17T07:42:25.500Z,42624.00
2022-08-17T07:47:22.598Z,44384.00
2022-08-17T07:52:48.394Z,44896.00
2022-08-17T07:57:27.871Z,43616.00
2022-08-17T08:02:23.307Z,50144.00
2022-08-17T08:07:23.624Z,45856.00
2022-08-17T08:12:22.389Z,44800.00
2022-08-17T08:17:23.809Z,14880.00
2022-08-17T08:22:22.086Z,11192.00
2022-08-17T08:27:22.052Z,7856.00
2022-08-17T08:32:22.093Z,6276.00
2022-08-17T08:37:32.630Z,6000.00
2022-08-17T08:42:25.851Z,5836.00
2022-08-17T08:47:21.781Z,5696.00
2022-08-17T08:52:22.075Z,5600.00
2022-08-17T08:57:30.865Z,5532.00
2022-08-17T09:02:22.687Z,5436.00
2022-08-17T09:07:21.553Z,5572.00
2022-08-17T09:12:21.485Z,5464.00
2022-08-17T09:17:21.484Z,5356.00
2022-08-17T09:22:22.515Z,5300.00
2022-08-17T09:27:21.284Z,5356.00
2022-08-17T09:32:21.256Z,6272.00
2022-08-17T09:37:21.332Z,5900.00
2022-08-17T09:42:24.120Z,5868.00
2022-08-17T09:47:21.045Z,5660.00
2022-08-17T09:52:20.988Z,5172.00
2022-08-17T09:57:36.097Z,4872.00
2022-08-17T10:02:21.835Z,4708.00
2022-08-17T10:07:20.793Z,4744.00
2022-08-17T10:12:20.724Z,4756.00
2022-08-17T10:17:20.624Z,4712.00
2022-08-17T10:22:34.600Z,4612.00
2022-08-17T10:27:21.646Z,4632.00
2022-08-17T10:32:20.606Z,4780.00
2022-08-17T10:37:20.411Z,5092.00
2022-08-17T10:42:32.549Z,5140.00
2022-08-17T10:47:21.351Z,5364.00
2022-08-17T10:52:20.255Z,5756.00
2022-08-17T10:57:20.260Z,6888.00
2022-08-17T11:02:20.064Z,7948.00
2022-08-17T11:07:19.980Z,8128.00
2022-08-17T11:12:20.033Z,8252.00
2022-08-17T11:17:19.824Z,8360.00
2022-08-17T11:22:19.853Z,7444.00
2022-08-17T11:27:19.719Z,6952.00
2022-08-17T11:32:19.789Z,7856.00
2022-08-17T11:37:19.709Z,7728.00
2022-08-17T11:42:22.637Z,7268.00
2022-08-17T11:47:19.704Z,9004.00
2022-08-17T11:52:19.628Z,9776.00
2022-08-17T11:57:19.442Z,9828.00
2022-08-17T12:02:19.285Z,9672.00
2022-08-17T12:07:19.265Z,9232.00
2022-08-17T12:12:19.215Z,7632.00
2022-08-17T12:17:39.174Z,8644.00
2022-08-17T12:22:20.207Z,12912.00
2022-08-17T12:27:18.958Z,9692.00
2022-08-17T12:32:20.048Z,6996.00
2022-08-17T12:37:18.899Z,5984.00
2022-08-17T12:42:22.002Z,5576.00
2022-08-17T12:47:22.322Z,5772.00
2022-08-17T12:52:18.791Z,5736.00
2022-08-17T12:57:18.587Z,5652.00
2022-08-17T13:02:18.666Z,5620.00
2022-08-17T13:07:18.458Z,5680.00
2022-08-17T13:12:18.497Z,5940.00
2022-08-17T13:17:18.409Z,5840.00
2022-08-17T13:22:18.343Z,6484.00
2022-08-17T13:27:18.204Z,6460.00
2022-08-17T13:32:19.932Z,4904.00
2022-08-17T13:37:18.070Z,5712.00
2022-08-17T13:42:22.855Z,7184.00
2022-08-17T13:47:18.043Z,8680.00
2022-08-17T13:52:18.012Z,10324.00
2022-08-17T13:57:18.898Z,9180.00
2022-08-17T14:02:17.933Z,7520.00
2022-08-17T14:07:17.761Z,8340.00
2022-08-17T14:12:17.642Z,8608.00
2022-08-17T14:17:17.722Z,11180.00
2022-08-17T14:22:17.576Z,8652.00
2022-08-17T14:27:17.777Z,6488.00
2022-08-17T14:32:17.545Z,7544.00
2022-08-17T14:41:16.539Z,8172.00
2022-08-17T14:46:15.839Z,10856.00
2022-08-17T14:51:13.876Z,8140.00
2022-08-17T14:56:13.935Z,8648.00
2022-08-17T15:01:13.733Z,6700.00
2022-08-17T15:06:13.841Z,8744.00
2022-08-17T15:11:14.401Z,10056.00
2022-08-17T15:16:13.712Z,8564.00
2022-08-17T15:21:13.556Z,8188.00
2022-08-17T15:26:13.440Z,11804.00
2022-08-17T15:31:16.322Z,9232.00
2022-08-17T15:36:13.362Z,8944.00
2022-08-17T15:41:13.325Z,8108.00
2022-08-17T15:46:13.442Z,7592.00
2022-08-17T15:51:13.988Z,5908.00
2022-08-17T15:56:13.399Z,5276.00
2022-08-17T16:01:15.039Z,4912.00
2022-08-17T16:06:13.967Z,6504.00
2022-08-17T16:55:46.934Z,4800.00
2022-08-17T17:18:08.049Z,3048.00
2022-08-17T17:25:15.006Z,2620.00
2022-08-17T17:32:19.642Z,2160.00
2022-08-17T17:37:15.589Z,1924.00
2022-08-17T17:42:19.946Z,1540.00
2022-08-17T17:47:15.601Z,1280.00
2022-08-17T17:52:19.091Z,1112.00
2022-08-17T17:57:15.276Z,928.00
2022-08-17T18:02:15.407Z,704.00
2022-08-17T18:07:15.240Z,536.00
2022-08-17T18:12:15.152Z,364.00
2022-08-17T18:17:15.260Z,316.00
2022-08-17T18:22:18.559Z,284.00
2022-08-17T18:27:14.884Z,188.00
2022-08-17T18:32:15.760Z,144.00
2022-08-17T18:37:16.068Z,100.00
2022-08-17T18:42:14.825Z,48.00
2022-08-17T18:47:14.571Z,24.00
2022-08-17T18:52:14.679Z,8.00
2022-08-17T18:57:14.779Z,4.00
2022-08-17T19:02:23.176Z,4.00
2022-08-17T19:07:15.426Z,0.00
2022-08-17T19:12:14.261Z,0.00
2022-08-17T19:17:14.572Z,0.00
2022-08-17T19:22:29.191Z,0.00
2022-08-17T19:27:15.221Z,0.00
2022-08-17T19:32:14.139Z,0.00
2022-08-17T19:37:13.947Z,0.00
2022-08-17T19:42:14.022Z,0.00
2022-08-17T19:47:13.800Z,0.00
2022-08-17T19:52:13.813Z,0.00
2022-08-17T19:57:13.642Z,0.00
2022-08-17T20:02:13.776Z,0.00
2022-08-17T20:07:13.617Z,0.00
2022-08-17T20:12:13.637Z,0.00
2022-08-17T20:17:13.443Z,0.00
2022-08-17T20:22:16.485Z,0.00
2022-08-17T20:27:13.317Z,0.00
2022-08-17T20:32:13.207Z,0.00
2022-08-17T20:37:13.123Z,0.00
2022-08-17T20:42:13.316Z,0.00
2022-08-17T20:47:13.000Z,0.00
2022-08-17T20:52:12.958Z,0.00
2022-08-17T20:57:14.376Z,0.00
2022-08-17T21:02:18.399Z,0.00
2022-08-17T21:07:13.777Z,0.00
2022-08-17T21:12:12.687Z,0.00
2022-08-17T21:17:12.726Z,0.00
2022-08-17T21:22:15.804Z,0.00
2022-08-17T21:27:12.464Z,0.00
2022-08-17T21:32:15.882Z,0.00
2022-08-17T21:37:13.381Z,0.00
2022-08-17T21:42:12.232Z,0.00
2022-08-17T21:47:12.214Z,0.00
2022-08-17T21:52:12.274Z,0.00
2022-08-17T21:57:12.084Z,0.00
2022-08-17T22:02:12.034Z,0.00
2022-08-17T22:07:11.942Z,0.00
2022-08-17T22:12:11.871Z,0.00
2022-08-17T22:17:11.992Z,0.00
2022-08-17T22:22:14.949Z,0.00
2022-08-17T22:27:11.757Z,0.00
2022-08-17T22:32:11.619Z,0.00
2022-08-17T22:37:11.553Z,0.00
2022-08-17T22:42:11.554Z,0.00
2022-08-17T22:47:11.739Z,0.00
2022-08-17T22:52:11.510Z,0.00
2022-08-17T22:57:11.239Z,0.00
2022-08-17T23:02:11.296Z,0.00
2022-08-17T23:07:11.157Z,0.00
2022-08-17T23:12:11.103Z,0.00
2022-08-17T23:17:10.988Z,0.00
2022-08-17T23:22:13.943Z,0.00
2022-08-17T23:27:10.915Z,0.00
2022-08-17T23:32:11.917Z,0.00
2022-08-17T23:37:10.737Z,0.00
2022-08-17T23:42:10.685Z,0.00
2022-08-17T23:47:10.847Z,0.00
2022-08-17T23:52:10.568Z,0.00
2022-08-17T23:57:10.473Z,0.00
